Etusivu
METAR-TAF:

METAR-TAF

Lentoasemat :

Kosrae, Mikronesia

Leveyspiiri: 05-21N, Pituuspiiri: 162-57E, korkeus merenpinnasta: 3 m

METAR: puuttuu

Aika: 05:50 (18:50 UTC)

Sääennuste

Tämä raportti tehtiin 19 tuntia ja 30 minuuttia sitten, kello 23.20 UTC
Ennuste voimassa 22. päivästä klo 00 UTC - 22. päivään klo 24 UTC
Tuuli 5 kn kaakosta
Näkyvyys: 6.4 km
Hajonneita pilviä 1200 ft:n korkeudessa
Pilvistä 11000 ft:n korkeudessa
vesikuuroja, sadekuuroja näköpiirissä
From 22. päivästä klo 0100 UTC
Tuuli 5 kn kaakosta
Näkyvyys: 10 km
Hajanaisia pilviä 1200 ft:n korkeudessa
Hajonneita pilviä 12000 ft:n korkeudessa
Pilvistä 30000 ft:n korkeudessa
sadekuuroja näköpiirissä
Ajoittain
22. päivästä klo 01 UTC - 22. päivään klo 05 UTC
Hajonneita pilviä 1500 ft:n korkeudessa
Pilvistä 12000 ft:n korkeudessa
heikkoja vesikuuroja

TAF: PTSA 212320Z 2200/2224 13005KT 4SM SHRA VCSH BKN012 OVC110 FM220100 13005KT P6SM VCSH SCT012 BKN120 OVC300 TEMPO 2201/2205 -SHRA BKN015 OVC120

Säähavainnot ja -ennusteet yli 4000 lentoasemalta (METAR- ja TAF-raportit).

Käytössä olevat sääasemat on merkitty karttaan keltaisilla ja punaisilla pisteillä.

Aseta hiiri pisteen päälle nähdäksesi sääaseman nimen.

Klikkaa sitten nähdäksesi säähavainnot ja -ennusteet.

Kartan vaihtaminen: klikkaa mustalla rastilla varustettuja vihreitä pisteitä, niin voit zoomata sisään; viivalla varustettua vihreää pistettä, niin voit zoomata ulos tai vihreitä nuolia, niin pääset viereisille kartoille.


METAR-TAF: